createdAt,value
2023-02-19T00:01:31.357Z,25.10
2023-02-19T00:04:05.272Z,25.02
2023-02-19T00:06:32.593Z,24.92
2023-02-19T00:08:59.301Z,23.63
2023-02-19T00:11:31.320Z,27.55
2023-02-19T00:13:58.520Z,22.50
2023-02-19T00:16:29.462Z,19.77
2023-02-19T00:19:05.519Z,17.75
2023-02-19T00:21:32.186Z,21.02
2023-02-19T00:24:03.744Z,25.30
2023-02-19T00:26:35.144Z,54.35
2023-02-19T00:29:04.059Z,57.08
2023-02-19T00:31:33.799Z,62.20
2023-02-19T00:34:04.930Z,57.42
2023-02-19T00:36:35.068Z,56.60
2023-02-19T00:39:04.579Z,60.63
2023-02-19T00:41:31.237Z,58.20
2023-02-19T00:43:58.538Z,50.60
2023-02-19T00:46:28.561Z,56.55
2023-02-19T00:48:57.520Z,45.55
2023-02-19T00:51:27.483Z,47.88
2023-02-19T00:53:54.207Z,52.60
2023-02-19T00:56:22.233Z,42.00
2023-02-19T00:58:48.891Z,48.42
2023-02-19T01:01:15.743Z,47.58
2023-02-19T01:03:42.458Z,48.28
2023-02-19T01:06:09.969Z,41.50
2023-02-19T01:08:39.376Z,41.45
2023-02-19T01:11:09.198Z,38.53
2023-02-19T01:13:36.176Z,43.00
2023-02-19T01:16:10.639Z,40.25
2023-02-19T01:18:39.541Z,35.53
2023-02-19T01:21:12.850Z,39.55
2023-02-19T01:23:41.814Z,39.08
2023-02-19T01:26:09.761Z,38.80
2023-02-19T01:28:36.474Z,37.83
2023-02-19T01:31:04.177Z,38.90
2023-02-19T01:33:33.610Z,34.78
2023-02-19T01:36:02.680Z,40.00
2023-02-19T01:38:31.501Z,36.53
2023-02-19T01:41:02.799Z,35.08
2023-02-19T01:43:29.490Z,31.50
2023-02-19T01:45:58.430Z,31.75
2023-02-19T01:48:38.393Z,32.30
2023-02-19T01:51:07.271Z,34.13
2023-02-19T01:53:36.670Z,31.77
2023-02-19T01:56:05.548Z,30.52
2023-02-19T01:58:33.861Z,30.08
2023-02-19T02:01:03.512Z,31.67
2023-02-19T02:03:30.289Z,28.77
2023-02-19T02:06:04.871Z,28.88
2023-02-19T02:08:50.500Z,30.95
2023-02-19T02:11:19.464Z,35.13
2023-02-19T02:13:46.241Z,30.30
2023-02-19T02:16:55.090Z,30.08
2023-02-19T02:19:32.393Z,27.05
2023-02-19T02:22:16.464Z,27.05
2023-02-19T02:25:21.530Z,26.60
2023-02-19T02:28:02.353Z,25.08
2023-02-19T02:30:35.816Z,29.30
2023-02-19T02:33:14.596Z,26.15
2023-02-19T02:36:03.901Z,26.85
2023-02-19T02:38:32.030Z,25.30
2023-02-19T02:40:58.844Z,24.17
2023-02-19T02:43:28.158Z,23.20
2023-02-19T02:45:55.032Z,25.88
2023-02-19T02:48:40.212Z,21.58
2023-02-19T02:51:12.420Z,20.45
2023-02-19T02:54:02.980Z,22.92
2023-02-19T02:56:31.783Z,22.33
2023-02-19T02:58:58.865Z,22.52
2023-02-19T03:01:48.553Z,23.38
2023-02-19T03:05:01.348Z,22.42
2023-02-19T03:07:33.045Z,24.75
2023-02-19T03:10:01.877Z,22.02
2023-02-19T03:12:47.092Z,18.67
2023-02-19T03:15:32.160Z,20.55
2023-02-19T03:18:21.996Z,20.65
2023-02-19T03:20:50.924Z,18.33
2023-02-19T03:23:20.293Z,22.10
2023-02-19T03:26:05.235Z,16.63
2023-02-19T03:28:51.852Z,18.63
2023-02-19T03:31:22.601Z,17.60
2023-02-19T03:33:52.196Z,20.40
2023-02-19T03:36:25.701Z,18.65
2023-02-19T03:38:59.235Z,20.75
2023-02-19T03:41:47.124Z,16.90
2023-02-19T03:44:25.554Z,18.65
2023-02-19T03:46:58.426Z,16.70
2023-02-19T03:49:40.258Z,17.85
2023-02-19T03:52:21.616Z,18.00
2023-02-19T03:57:35.482Z,15.88
2023-02-19T04:00:16.275Z,16.17
2023-02-19T04:03:04.682Z,14.20
2023-02-19T04:05:35.906Z,16.90
2023-02-19T04:10:39.102Z,17.45
2023-02-19T04:13:14.616Z,15.32
2023-02-19T04:15:41.781Z,18.52
2023-02-19T04:18:13.092Z,16.48
2023-02-19T04:20:42.971Z,16.52
2023-02-19T04:23:11.762Z,16.77
2023-02-19T04:25:41.573Z,16.95
2023-02-19T04:28:09.634Z,17.15
2023-02-19T04:30:41.117Z,13.57
2023-02-19T04:33:07.769Z,16.45
2023-02-19T04:35:36.640Z,15.50
2023-02-19T04:38:05.514Z,15.30
2023-02-19T04:40:32.120Z,16.17
2023-02-19T04:42:58.860Z,13.07
2023-02-19T04:45:27.653Z,12.73
2023-02-19T04:47:54.289Z,15.35
2023-02-19T04:50:23.414Z,15.02
2023-02-19T04:52:50.107Z,15.20
2023-02-19T04:55:20.011Z,15.82
2023-02-19T04:57:46.688Z,14.60
2023-02-19T05:00:16.162Z,14.95
2023-02-19T05:02:47.963Z,14.25
2023-02-19T05:05:14.696Z,13.43
2023-02-19T05:07:41.411Z,14.30
2023-02-19T05:10:08.268Z,12.93
2023-02-19T05:12:34.879Z,13.57
2023-02-19T05:15:01.550Z,15.57
2023-02-19T05:17:28.159Z,13.98
2023-02-19T05:19:54.853Z,12.98
2023-02-19T05:22:24.673Z,12.85
2023-02-19T05:24:51.338Z,13.40
2023-02-19T05:27:20.230Z,13.32
2023-02-19T05:29:49.020Z,12.07
2023-02-19T05:32:18.764Z,12.40
2023-02-19T05:34:47.539Z,11.23
2023-02-19T05:37:16.343Z,12.18
2023-02-19T05:39:45.271Z,11.93
2023-02-19T05:42:13.857Z,10.73
2023-02-19T05:44:42.740Z,13.30
2023-02-19T05:47:11.729Z,11.98
2023-02-19T05:49:38.406Z,11.63
2023-02-19T05:52:05.230Z,12.45
2023-02-19T05:54:34.052Z,12.10
2023-02-19T05:57:00.699Z,11.65
2023-02-19T05:59:27.548Z,13.02
2023-02-19T06:01:54.743Z,11.80
2023-02-19T06:04:21.439Z,11.52
2023-02-19T06:06:48.125Z,12.40
2023-02-19T06:09:16.930Z,12.10
2023-02-19T06:11:44.151Z,12.27
2023-02-19T06:14:14.802Z,12.30
2023-02-19T06:16:41.591Z,10.15
2023-02-19T06:19:08.442Z,11.00
2023-02-19T06:21:35.114Z,10.18
2023-02-19T06:24:06.485Z,9.30
2023-02-19T06:26:35.695Z,12.02
2023-02-19T06:29:04.523Z,10.27
2023-02-19T06:31:33.392Z,10.57
2023-02-19T06:34:07.356Z,11.38
2023-02-19T06:36:35.268Z,11.43
2023-02-19T06:39:02.354Z,10.52
2023-02-19T06:41:29.049Z,11.05
2023-02-19T06:43:57.583Z,10.82
2023-02-19T06:46:26.668Z,11.60
2023-02-19T06:48:53.299Z,13.00
2023-02-19T06:51:22.753Z,10.90
2023-02-19T06:53:52.086Z,11.25
2023-02-19T06:56:38.398Z,10.90
2023-02-19T06:59:07.007Z,11.88
2023-02-19T07:01:36.624Z,11.85
2023-02-19T07:04:03.672Z,11.95
2023-02-19T07:06:35.814Z,10.75
2023-02-19T07:09:05.641Z,9.02
2023-02-19T07:11:36.560Z,9.40
2023-02-19T07:14:04.278Z,9.93
2023-02-19T07:16:31.181Z,9.25
2023-02-19T07:18:58.434Z,9.05
2023-02-19T07:21:27.216Z,9.13
2023-02-19T07:23:53.945Z,11.02
2023-02-19T07:26:22.989Z,8.55
2023-02-19T07:28:52.809Z,10.20
2023-02-19T07:31:20.561Z,12.57
2023-02-19T07:33:50.046Z,9.93
2023-02-19T07:36:20.754Z,10.05
2023-02-19T07:38:49.116Z,10.13
2023-02-19T07:41:17.972Z,8.88
2023-02-19T07:43:47.304Z,10.93
2023-02-19T07:46:14.600Z,13.10
2023-02-19T07:48:42.595Z,8.45
2023-02-19T07:51:16.620Z,11.13
2023-02-19T07:53:45.430Z,10.70
2023-02-19T07:56:15.238Z,11.68
2023-02-19T07:58:48.754Z,14.35
2023-02-19T08:01:41.484Z,13.80
2023-02-19T08:04:10.888Z,10.52
2023-02-19T08:06:39.900Z,9.63
2023-02-19T08:09:08.700Z,10.85
2023-02-19T08:11:53.730Z,11.15
2023-02-19T08:14:20.370Z,12.18
2023-02-19T08:16:53.395Z,9.15
2023-02-19T08:19:22.362Z,12.05
2023-02-19T08:21:51.354Z,10.40
2023-02-19T08:24:20.179Z,13.40
2023-02-19T08:26:49.143Z,16.48
2023-02-19T08:29:15.730Z,9.25
2023-02-19T08:31:42.844Z,12.32
2023-02-19T08:34:09.816Z,12.23
2023-02-19T08:36:36.750Z,12.00
2023-02-19T08:39:06.046Z,11.02
2023-02-19T08:41:33.187Z,10.90
2023-02-19T08:44:03.035Z,13.38
2023-02-19T08:46:34.352Z,11.80
2023-02-19T08:49:03.438Z,12.95
2023-02-19T08:51:33.860Z,17.88
2023-02-19T08:54:03.458Z,24.13
2023-02-19T08:56:30.738Z,32.78
2023-02-19T08:58:57.574Z,43.97
2023-02-19T09:01:24.294Z,51.92
2023-02-19T09:03:55.727Z,65.60
2023-02-19T09:06:22.797Z,67.75
2023-02-19T09:08:49.551Z,82.38
2023-02-19T09:11:18.420Z,83.13
2023-02-19T09:13:47.452Z,100.03
2023-02-19T09:16:16.343Z,114.95
2023-02-19T09:18:43.200Z,137.18
2023-02-19T09:21:10.195Z,163.50
2023-02-19T09:23:40.212Z,178.75
2023-02-19T09:26:11.422Z,174.93
2023-02-19T09:31:12.586Z,196.93
2023-02-19T09:36:13.427Z,213.35
2023-02-19T09:38:40.665Z,235.43
2023-02-19T09:41:15.707Z,252.63
2023-02-19T09:43:45.361Z,239.10
2023-02-19T09:46:29.243Z,228.45
2023-02-19T09:48:59.390Z,251.90
2023-02-19T09:51:26.177Z,239.40
2023-02-19T09:53:55.220Z,243.13
2023-02-19T09:56:26.754Z,235.55
2023-02-19T09:58:55.418Z,243.57
2023-02-19T10:01:24.298Z,245.68
2023-02-19T10:03:50.960Z,232.20
2023-02-19T10:06:25.186Z,237.52
2023-02-19T10:08:56.704Z,225.27
2023-02-19T10:11:26.289Z,228.70
2023-02-19T10:14:05.484Z,228.35
2023-02-19T10:16:34.473Z,227.95
2023-02-19T10:19:01.170Z,217.55
2023-02-19T10:21:28.077Z,217.57
2023-02-19T10:24:02.994Z,210.75
2023-02-19T10:26:36.855Z,214.32
2023-02-19T10:29:04.382Z,216.43
2023-02-19T10:31:31.537Z,211.63
2023-02-19T10:34:00.439Z,203.65
2023-02-19T10:36:35.008Z,196.40
2023-02-19T10:39:06.247Z,209.88
2023-02-19T10:44:16.592Z,197.48
2023-02-19T10:46:48.187Z,190.10
2023-02-19T10:49:38.789Z,192.35
2023-02-19T10:52:23.621Z,184.50
2023-02-19T10:54:56.282Z,187.23
2023-02-19T10:57:32.802Z,178.32
2023-02-19T11:00:19.379Z,180.25
2023-02-19T11:02:46.039Z,169.32
2023-02-19T11:05:14.473Z,181.65
2023-02-19T11:07:51.195Z,173.75
2023-02-19T11:10:28.580Z,172.15
2023-02-19T11:12:59.931Z,165.23
2023-02-19T11:15:34.321Z,173.30
2023-02-19T11:18:13.099Z,164.73
2023-02-19T11:20:49.308Z,170.32
2023-02-19T11:23:22.263Z,162.18
2023-02-19T11:25:49.682Z,158.25
2023-02-19T11:28:35.679Z,163.35
2023-02-19T11:31:22.870Z,157.82
2023-02-19T11:33:49.465Z,162.85
2023-02-19T11:36:16.122Z,155.55
2023-02-19T11:38:45.436Z,160.13
2023-02-19T11:41:19.902Z,158.48
2023-02-19T11:43:49.911Z,148.05
2023-02-19T11:46:23.070Z,154.45
2023-02-19T11:49:11.074Z,147.57
2023-02-19T11:52:02.545Z,141.65
2023-02-19T11:54:48.804Z,144.52
2023-02-19T11:57:40.210Z,143.23
2023-02-19T12:03:20.146Z,135.30
2023-02-19T12:06:02.074Z,137.45
2023-02-19T12:08:34.777Z,138.73
2023-02-19T12:11:20.132Z,134.88
2023-02-19T12:14:05.646Z,135.45
2023-02-19T12:16:43.839Z,138.48
2023-02-19T12:19:29.263Z,127.13
2023-02-19T12:21:55.841Z,129.93
2023-02-19T12:24:37.383Z,126.57
2023-02-19T12:27:22.504Z,131.05
2023-02-19T12:30:19.903Z,127.05
2023-02-19T12:33:04.792Z,123.80
2023-02-19T12:35:54.785Z,129.82
2023-02-19T12:38:35.199Z,119.15
2023-02-19T12:41:11.825Z,119.43
2023-02-19T12:43:40.764Z,125.28
2023-02-19T12:46:20.223Z,116.97
2023-02-19T12:48:53.478Z,115.68
2023-02-19T12:51:44.346Z,120.40
2023-02-19T12:54:15.128Z,118.18
2023-02-19T12:57:07.905Z,110.80
2023-02-19T12:59:44.018Z,108.72
2023-02-19T13:02:28.033Z,111.97
2023-02-19T13:05:19.489Z,105.97
2023-02-19T13:10:52.803Z,105.55
2023-02-19T13:13:22.024Z,103.50
2023-02-19T13:15:54.039Z,96.95
2023-02-19T13:18:26.277Z,102.05
2023-02-19T13:20:55.897Z,93.25
2023-02-19T13:23:46.642Z,94.05
2023-02-19T13:26:44.154Z,93.37
2023-02-19T13:29:35.094Z,93.07
2023-02-19T13:32:40.525Z,92.30
2023-02-19T13:35:18.117Z,87.55
2023-02-19T13:37:46.915Z,87.22
2023-02-19T13:40:39.908Z,85.45
2023-02-19T13:43:08.029Z,85.70
2023-02-19T13:45:41.979Z,82.63
2023-02-19T13:48:14.410Z,78.45
2023-02-19T13:50:41.389Z,83.28
2023-02-19T13:53:54.126Z,72.97
2023-02-19T13:56:30.140Z,79.35
2023-02-19T13:59:36.053Z,77.63
2023-02-19T14:02:02.733Z,83.05
2023-02-19T14:04:32.401Z,80.40
2023-02-19T14:07:05.144Z,77.63
2023-02-19T14:09:34.492Z,80.32
2023-02-19T14:12:10.511Z,77.93
2023-02-19T14:15:07.025Z,78.97
2023-02-19T14:17:39.988Z,78.25
2023-02-19T14:20:09.763Z,73.95
2023-02-19T14:22:57.472Z,72.03
2023-02-19T14:25:35.886Z,75.55
2023-02-19T14:28:21.078Z,77.35
2023-02-19T14:30:55.119Z,72.32
2023-02-19T14:33:29.105Z,68.80
2023-02-19T14:36:34.539Z,73.80
2023-02-19T14:39:08.089Z,71.78
2023-02-19T14:41:38.726Z,68.40
2023-02-19T14:44:06.085Z,69.13
2023-02-19T14:46:42.110Z,69.63
2023-02-19T14:49:36.483Z,63.05
2023-02-19T14:52:09.972Z,65.97
2023-02-19T14:54:50.289Z,64.40
2023-02-19T14:57:27.419Z,66.37
2023-02-19T14:59:58.876Z,61.70
2023-02-19T15:02:28.709Z,63.30
2023-02-19T15:04:55.557Z,63.92
2023-02-19T15:07:30.289Z,63.40
2023-02-19T15:10:05.567Z,67.15
2023-02-19T15:12:39.937Z,62.00
2023-02-19T15:15:07.289Z,59.13
2023-02-19T15:17:39.797Z,63.80
2023-02-19T15:20:11.764Z,64.13
2023-02-19T15:22:39.894Z,62.80
2023-02-19T15:25:08.686Z,57.55
2023-02-19T15:27:37.605Z,59.65
2023-02-19T15:30:04.448Z,64.95
2023-02-19T15:32:33.209Z,59.22
2023-02-19T15:35:01.581Z,58.42
2023-02-19T15:37:32.856Z,58.30
2023-02-19T15:40:01.163Z,57.95
2023-02-19T15:42:32.012Z,55.40
2023-02-19T15:45:02.723Z,56.85
2023-02-19T15:47:33.273Z,57.45
2023-02-19T15:50:12.581Z,56.47
2023-02-19T15:53:10.387Z,55.38
2023-02-19T15:55:41.366Z,56.42
2023-02-19T15:58:20.347Z,52.05
2023-02-19T16:00:49.823Z,51.08
2023-02-19T16:03:25.696Z,48.17
2023-02-19T16:06:01.622Z,52.35
2023-02-19T16:08:38.962Z,50.17
2023-02-19T16:11:29.426Z,49.97
2023-02-19T16:14:19.279Z,49.55
2023-02-19T16:16:46.797Z,50.65
2023-02-19T16:19:13.460Z,45.53
2023-02-19T16:21:44.145Z,50.42
2023-02-19T16:24:16.873Z,45.83
2023-02-19T16:26:46.707Z,45.90
2023-02-19T16:29:32.960Z,49.30
2023-02-19T16:32:01.626Z,44.55
2023-02-19T16:34:39.527Z,44.72
2023-02-19T16:37:30.295Z,47.30
2023-02-19T16:40:37.827Z,42.70
2023-02-19T16:43:04.422Z,43.40
2023-02-19T16:45:33.537Z,44.05
2023-02-19T16:48:04.880Z,43.22
2023-02-19T16:50:36.317Z,45.33
2023-02-19T16:53:05.793Z,45.03
2023-02-19T16:55:34.625Z,42.20
2023-02-19T16:58:01.361Z,41.42
2023-02-19T17:00:33.298Z,43.28
2023-02-19T17:03:09.011Z,41.63
2023-02-19T17:05:38.141Z,41.40
2023-02-19T17:08:26.553Z,42.47
2023-02-19T17:10:55.836Z,40.67
2023-02-19T17:13:25.380Z,36.60
2023-02-19T17:15:52.012Z,38.22
2023-02-19T17:18:21.575Z,38.72
2023-02-19T17:20:59.696Z,40.35
2023-02-19T17:23:26.473Z,39.53
2023-02-19T17:25:55.359Z,37.65
2023-02-19T17:28:24.361Z,37.83
2023-02-19T17:30:53.286Z,39.65
2023-02-19T17:33:20.010Z,40.00
2023-02-19T17:35:49.013Z,35.72
2023-02-19T17:38:18.595Z,33.75
2023-02-19T17:40:47.408Z,33.92
2023-02-19T17:43:14.720Z,36.67
2023-02-19T17:45:41.621Z,34.80
2023-02-19T17:48:15.049Z,35.05
2023-02-19T17:50:44.143Z,35.25
2023-02-19T17:53:12.958Z,35.63
2023-02-19T17:55:39.685Z,34.97
2023-02-19T17:58:06.384Z,32.85
2023-02-19T18:00:36.654Z,30.90
2023-02-19T18:03:03.858Z,31.88
2023-02-19T18:05:32.911Z,31.67
2023-02-19T18:07:59.525Z,33.38
2023-02-19T18:10:30.999Z,33.40
2023-02-19T18:13:00.413Z,34.88
2023-02-19T18:15:27.010Z,31.58
2023-02-19T18:17:54.246Z,29.75
2023-02-19T18:20:28.104Z,28.08
2023-02-19T18:22:55.268Z,31.17
2023-02-19T18:25:22.090Z,31.08
2023-02-19T18:27:48.862Z,30.15
2023-02-19T18:30:18.450Z,30.60
2023-02-19T18:32:48.576Z,28.60
2023-02-19T18:35:18.352Z,30.55
2023-02-19T18:37:45.093Z,29.33
2023-02-19T18:40:12.152Z,29.17
2023-02-19T18:42:41.477Z,27.80
2023-02-19T18:45:08.270Z,29.20
2023-02-19T18:47:37.073Z,28.25
2023-02-19T18:50:08.373Z,27.83
2023-02-19T18:52:34.970Z,27.77
2023-02-19T18:55:03.821Z,29.05
2023-02-19T18:57:32.586Z,28.00
2023-02-19T19:00:01.488Z,26.80
2023-02-19T19:02:33.745Z,25.92
2023-02-19T19:05:06.350Z,27.95
2023-02-19T19:07:33.018Z,28.10
2023-02-19T19:10:01.904Z,25.98
2023-02-19T19:12:30.790Z,26.23
2023-02-19T19:15:00.433Z,26.05
2023-02-19T19:17:27.153Z,29.42
2023-02-19T19:19:56.484Z,27.90
2023-02-19T19:22:25.263Z,28.67
2023-02-19T19:24:54.319Z,25.42
2023-02-19T19:27:21.064Z,26.05
2023-02-19T19:29:50.141Z,28.10
2023-02-19T19:32:19.220Z,27.38
2023-02-19T19:34:48.286Z,23.63
2023-02-19T19:37:19.595Z,24.27
2023-02-19T19:39:46.195Z,23.75
2023-02-19T19:42:12.939Z,24.23
2023-02-19T19:44:39.836Z,25.42
2023-02-19T19:47:06.475Z,25.92
2023-02-19T19:49:35.228Z,24.80
2023-02-19T19:52:05.054Z,28.27
2023-02-19T19:54:34.055Z,26.25
2023-02-19T19:57:03.475Z,31.17
2023-02-19T19:59:32.424Z,30.23
2023-02-19T20:01:59.278Z,29.45
2023-02-19T20:04:28.083Z,30.10
2023-02-19T20:06:56.914Z,30.95
2023-02-19T20:09:29.973Z,32.88
2023-02-19T20:11:56.800Z,40.47
2023-02-19T20:14:23.653Z,40.53
2023-02-19T20:16:50.686Z,38.20
2023-02-19T20:19:20.620Z,40.90
2023-02-19T20:21:53.749Z,45.55
2023-02-19T20:24:26.058Z,43.90
2023-02-19T20:26:58.679Z,45.05
2023-02-19T20:29:27.916Z,45.00
2023-02-19T20:31:57.448Z,44.03
2023-02-19T20:34:24.208Z,46.60
2023-02-19T20:36:53.460Z,46.50
2023-02-19T20:39:28.650Z,46.60
2023-02-19T20:41:57.758Z,49.33
2023-02-19T20:44:27.232Z,46.60
2023-02-19T20:46:54.012Z,52.53
2023-02-19T20:49:22.507Z,51.75
2023-02-19T20:52:02.396Z,51.33
2023-02-19T20:54:30.725Z,52.10
2023-02-19T20:56:59.922Z,54.55
2023-02-19T20:59:30.943Z,55.83
2023-02-19T21:01:58.580Z,58.15
2023-02-19T21:04:27.699Z,57.72
2023-02-19T21:06:54.440Z,55.13
2023-02-19T21:09:21.701Z,56.42
2023-02-19T21:11:48.708Z,52.25
2023-02-19T21:14:15.496Z,54.00
2023-02-19T21:16:44.346Z,56.47
2023-02-19T21:19:13.207Z,59.10
2023-02-19T21:21:42.087Z,54.40
2023-02-19T21:24:13.073Z,58.25
2023-02-19T21:26:40.197Z,59.75
2023-02-19T21:29:10.654Z,64.97
2023-02-19T21:31:44.585Z,61.60
2023-02-19T21:34:13.103Z,65.18
2023-02-19T21:36:39.849Z,63.95
2023-02-19T21:39:07.318Z,67.75
2023-02-19T21:41:36.118Z,66.22
2023-02-19T21:44:02.854Z,67.32
2023-02-19T21:46:29.507Z,68.05
2023-02-19T21:48:56.430Z,66.10
2023-02-19T21:51:31.815Z,68.07
2023-02-19T21:53:58.828Z,67.57
2023-02-19T21:56:30.185Z,69.75
2023-02-19T21:58:59.036Z,69.13
2023-02-19T22:01:31.689Z,69.13
2023-02-19T22:04:01.032Z,69.47
2023-02-19T22:06:30.887Z,67.50
2023-02-19T22:08:58.262Z,67.35
2023-02-19T22:11:25.013Z,67.13
2023-02-19T22:13:51.751Z,67.15
2023-02-19T22:16:20.768Z,66.30
2023-02-19T22:18:51.398Z,63.15
2023-02-19T22:21:20.806Z,63.45
2023-02-19T22:23:50.066Z,63.65
2023-02-19T22:26:18.862Z,61.17
2023-02-19T22:28:47.708Z,62.95
2023-02-19T22:31:18.238Z,65.50
2023-02-19T22:33:49.602Z,60.10
2023-02-19T22:36:16.849Z,60.90
2023-02-19T22:38:43.540Z,61.83
2023-02-19T22:41:12.349Z,57.92
2023-02-19T22:43:43.774Z,58.50
2023-02-19T22:46:14.828Z,55.58
2023-02-19T22:48:46.477Z,53.92
2023-02-19T22:51:14.906Z,53.42
2023-02-19T22:53:44.789Z,54.13
2023-02-19T22:56:18.130Z,52.50
2023-02-19T22:58:49.499Z,53.75
2023-02-19T23:01:16.225Z,51.30
2023-02-19T23:03:52.570Z,54.63
2023-02-19T23:06:25.006Z,48.90
2023-02-19T23:08:52.598Z,51.42
2023-02-19T23:11:29.702Z,51.00
2023-02-19T23:13:59.219Z,50.28
2023-02-19T23:16:28.476Z,50.97
2023-02-19T23:18:55.258Z,47.88
2023-02-19T23:21:22.160Z,48.28
2023-02-19T23:23:48.856Z,48.65
2023-02-19T23:26:15.990Z,46.47
2023-02-19T23:28:42.846Z,48.45
2023-02-19T23:31:11.729Z,46.67
2023-02-19T23:33:40.888Z,46.75
2023-02-19T23:36:08.197Z,49.33
2023-02-19T23:38:37.221Z,47.03
2023-02-19T23:41:04.118Z,45.30
2023-02-19T23:43:33.043Z,45.67
2023-02-19T23:46:01.897Z,45.40
2023-02-19T23:48:30.983Z,44.65
2023-02-19T23:50:57.617Z,43.88
2023-02-19T23:53:27.091Z,45.30
2023-02-19T23:55:53.710Z,45.38
2023-02-19T23:58:22.536Z,45.78
